createdAt,value
2022-08-28T00:02:15.980Z,950.40
2022-08-28T00:04:42.433Z,950.39
2022-08-28T00:07:08.764Z,950.45
2022-08-28T00:09:35.220Z,950.47
2022-08-28T00:12:01.591Z,950.45
2022-08-28T00:14:28.088Z,950.43
2022-08-28T00:16:54.504Z,950.42
2022-08-28T00:19:20.871Z,950.42
2022-08-28T00:21:47.278Z,950.42
2022-08-28T00:24:13.645Z,950.43
2022-08-28T00:26:40.149Z,950.43
2022-08-28T00:29:06.516Z,950.46
2022-08-28T00:31:32.946Z,950.39
2022-08-28T00:33:59.269Z,950.35
2022-08-28T00:36:25.629Z,950.45
2022-08-28T00:38:51.991Z,950.45
2022-08-28T00:41:18.442Z,950.47
2022-08-28T00:43:44.874Z,950.46
2022-08-28T00:46:11.362Z,950.44
2022-08-28T00:48:37.695Z,950.48
2022-08-28T00:51:04.056Z,950.43
2022-08-28T00:53:33.069Z,950.50
2022-08-28T00:55:56.820Z,950.43
2022-08-28T00:58:23.266Z,950.47
2022-08-28T01:00:49.634Z,950.47
2022-08-28T01:03:16.034Z,950.50
2022-08-28T01:05:42.400Z,950.50
2022-08-28T01:08:08.875Z,950.40
2022-08-28T01:10:35.166Z,950.49
2022-08-28T01:13:01.664Z,950.47
2022-08-28T01:15:28.099Z,950.49
2022-08-28T01:17:54.520Z,950.44
2022-08-28T01:20:20.959Z,950.44
2022-08-28T01:22:47.378Z,950.40
2022-08-28T01:25:13.746Z,950.43
2022-08-28T01:27:40.109Z,950.43
2022-08-28T01:30:06.494Z,950.48
2022-08-28T01:32:32.920Z,950.53
2022-08-28T01:34:59.356Z,950.52
2022-08-28T01:37:25.717Z,950.59
2022-08-28T01:39:52.221Z,950.57
2022-08-28T01:42:18.550Z,950.50
2022-08-28T01:44:44.933Z,950.47
2022-08-28T01:47:11.317Z,950.47
2022-08-28T01:49:37.753Z,950.51
2022-08-28T01:52:04.112Z,950.49
2022-08-28T01:54:30.514Z,950.52
2022-08-28T01:56:56.903Z,950.49
2022-08-28T01:59:23.281Z,950.56
2022-08-28T02:01:49.755Z,950.58
2022-08-28T02:04:16.180Z,950.55
2022-08-28T02:06:42.504Z,950.49
2022-08-28T02:09:13.482Z,950.53
2022-08-28T02:11:35.362Z,950.53
2022-08-28T02:14:01.726Z,950.53
2022-08-28T02:16:28.139Z,950.57
2022-08-28T02:18:54.536Z,950.56
2022-08-28T02:21:20.958Z,950.55
2022-08-28T02:23:47.403Z,950.54
2022-08-28T02:26:13.768Z,950.53
2022-08-28T02:28:40.167Z,950.54
2022-08-28T02:31:06.648Z,950.59
2022-08-28T02:33:32.953Z,950.61
2022-08-28T02:35:59.316Z,950.61
2022-08-28T02:38:25.721Z,950.62
2022-08-28T02:40:52.082Z,950.56
2022-08-28T02:43:18.455Z,950.59
2022-08-28T02:45:44.888Z,950.59
2022-08-28T02:48:15.647Z,950.59
2022-08-28T02:50:37.703Z,950.62
2022-08-28T02:53:04.095Z,950.68
2022-08-28T02:55:34.102Z,950.65
2022-08-28T02:57:56.952Z,950.61
2022-08-28T03:00:23.320Z,950.64
2022-08-28T03:02:49.773Z,950.64
2022-08-28T03:05:16.071Z,950.67
2022-08-28T03:07:42.489Z,950.70
2022-08-28T03:10:08.869Z,950.67
2022-08-28T03:12:35.253Z,950.74
2022-08-28T03:15:01.675Z,950.74
2022-08-28T03:17:28.113Z,950.76
2022-08-28T03:19:54.535Z,950.76
2022-08-28T03:22:20.920Z,950.80
2022-08-28T03:24:47.297Z,950.83
2022-08-28T03:27:13.739Z,950.79
2022-08-28T03:29:40.098Z,950.81
2022-08-28T03:32:06.507Z,950.82
2022-08-28T03:34:32.890Z,950.79
2022-08-28T03:36:59.371Z,950.83
2022-08-28T03:39:25.733Z,950.79
2022-08-28T03:41:52.135Z,950.89
2022-08-28T03:44:18.496Z,950.89
2022-08-28T03:46:44.862Z,950.94
2022-08-28T03:49:11.328Z,950.96
2022-08-28T03:51:37.765Z,950.97
2022-08-28T03:54:04.129Z,951.01
2022-08-28T03:56:30.528Z,951.07
2022-08-28T03:58:56.893Z,951.04
2022-08-28T04:01:23.333Z,951.14
2022-08-28T04:03:49.678Z,951.15
2022-08-28T04:06:16.063Z,951.11
2022-08-28T04:08:42.445Z,951.16
2022-08-28T04:11:08.809Z,951.14
2022-08-28T04:13:35.194Z,951.13
2022-08-28T04:16:01.582Z,951.22
2022-08-28T04:18:27.962Z,951.21
2022-08-28T04:20:54.352Z,951.23
2022-08-28T04:23:20.711Z,951.22
2022-08-28T04:25:47.115Z,951.28
2022-08-28T04:28:13.581Z,951.33
2022-08-28T04:30:39.970Z,951.38
2022-08-28T04:33:06.335Z,951.37
2022-08-28T04:35:32.696Z,951.38
2022-08-28T04:37:59.189Z,951.45
2022-08-28T04:40:25.567Z,951.37
2022-08-28T04:42:51.881Z,951.42
2022-08-28T04:45:18.369Z,951.47
2022-08-28T04:47:44.787Z,951.52
2022-08-28T04:50:11.192Z,951.55
2022-08-28T04:52:37.555Z,951.49
2022-08-28T04:55:03.922Z,951.52
2022-08-28T04:57:34.418Z,951.48
2022-08-28T04:59:56.705Z,951.54
2022-08-28T05:02:23.199Z,951.54
2022-08-28T05:04:49.481Z,951.62
2022-08-28T05:07:15.952Z,951.59
2022-08-28T05:09:42.389Z,951.55
2022-08-28T05:12:08.793Z,951.57
2022-08-28T05:14:35.159Z,951.52
2022-08-28T05:17:01.584Z,951.57
2022-08-28T05:19:28.039Z,951.65
2022-08-28T05:21:54.408Z,951.64
2022-08-28T05:24:20.762Z,951.68
2022-08-28T05:26:48.234Z,951.70
2022-08-28T05:29:13.535Z,951.69
2022-08-28T05:31:40.039Z,951.69
2022-08-28T05:34:07.020Z,951.74
2022-08-28T05:36:33.219Z,951.74
2022-08-28T05:38:59.226Z,951.72
2022-08-28T05:41:25.616Z,951.77
2022-08-28T05:43:52.013Z,951.82
2022-08-28T05:46:18.524Z,951.79
2022-08-28T05:48:44.861Z,951.83
2022-08-28T05:51:11.241Z,951.78
2022-08-28T05:53:37.627Z,951.83
2022-08-28T05:56:03.995Z,951.80
2022-08-28T05:58:30.407Z,951.76
2022-08-28T06:00:56.871Z,951.75
2022-08-28T06:03:23.229Z,951.79
2022-08-28T06:05:49.633Z,951.76
2022-08-28T06:08:16.069Z,951.80
2022-08-28T06:10:42.434Z,951.79
2022-08-28T06:13:08.812Z,951.74
2022-08-28T06:15:35.266Z,951.82
2022-08-28T06:18:01.631Z,951.80
2022-08-28T06:20:28.039Z,951.82
2022-08-28T06:22:54.403Z,951.86
2022-08-28T06:25:20.789Z,951.80
2022-08-28T06:27:47.225Z,951.81
2022-08-28T06:30:13.621Z,951.79
2022-08-28T06:32:40.035Z,951.82
2022-08-28T06:35:06.422Z,951.78
2022-08-28T06:37:32.788Z,951.86
2022-08-28T06:39:59.169Z,951.83
2022-08-28T06:42:25.634Z,951.84
2022-08-28T06:44:52.051Z,951.87
2022-08-28T06:47:18.435Z,951.88
2022-08-28T06:49:44.800Z,951.90
2022-08-28T06:52:11.164Z,951.91
2022-08-28T06:54:37.584Z,951.84
2022-08-28T06:57:04.034Z,951.83
2022-08-28T06:59:30.419Z,951.82
2022-08-28T07:01:56.929Z,951.86
2022-08-28T07:04:23.180Z,951.84
2022-08-28T07:06:53.654Z,951.87
2022-08-28T07:09:16.039Z,951.85
2022-08-28T07:11:42.406Z,951.76
2022-08-28T07:14:08.838Z,951.76
2022-08-28T07:16:35.220Z,951.86
2022-08-28T07:19:01.732Z,951.84
2022-08-28T07:21:28.090Z,951.84
2022-08-28T07:23:54.514Z,951.81
2022-08-28T07:26:20.877Z,951.81
2022-08-28T07:28:47.260Z,951.80
2022-08-28T07:31:13.679Z,951.80
2022-08-28T07:33:40.026Z,951.79
2022-08-28T07:36:06.428Z,951.76
2022-08-28T07:38:32.873Z,951.69
2022-08-28T07:40:59.299Z,951.74
2022-08-28T07:43:25.731Z,951.73
2022-08-28T07:45:52.124Z,951.73
2022-08-28T07:48:21.368Z,951.68
2022-08-28T07:50:44.964Z,951.67
2022-08-28T07:53:11.332Z,951.68
2022-08-28T07:55:37.731Z,951.65
2022-08-28T07:58:04.125Z,951.69
2022-08-28T08:00:30.479Z,951.65
2022-08-28T08:02:56.888Z,951.66
2022-08-28T08:05:23.321Z,951.64
2022-08-28T08:07:49.685Z,951.62
2022-08-28T08:10:20.747Z,951.63
2022-08-28T08:12:42.516Z,951.69
2022-08-28T08:15:08.946Z,951.61
2022-08-28T08:17:35.320Z,951.63
2022-08-28T08:20:01.685Z,951.61
2022-08-28T08:22:28.109Z,951.64
2022-08-28T08:24:54.485Z,951.59
2022-08-28T08:27:20.859Z,951.61
2022-08-28T08:29:47.340Z,951.57
2022-08-28T08:32:13.766Z,951.51
2022-08-28T08:34:40.136Z,951.54
2022-08-28T08:37:06.536Z,951.56
2022-08-28T08:39:32.890Z,951.48
2022-08-28T08:41:59.259Z,951.56
2022-08-28T08:44:34.077Z,951.51
2022-08-28T08:46:52.040Z,951.56
2022-08-28T08:49:18.398Z,951.49
2022-08-28T08:51:44.776Z,951.54
2022-08-28T08:54:11.135Z,951.51
2022-08-28T08:56:37.543Z,951.45
2022-08-28T08:59:03.934Z,951.43
2022-08-28T09:01:30.407Z,951.46
2022-08-28T09:03:56.763Z,951.46
2022-08-28T09:06:23.080Z,951.50
2022-08-28T09:08:49.465Z,951.51
2022-08-28T09:11:15.878Z,951.48
2022-08-28T09:13:42.281Z,951.49
2022-08-28T09:16:08.702Z,951.49
2022-08-28T09:18:35.012Z,951.46
2022-08-28T09:21:01.411Z,951.44
2022-08-28T09:23:30.011Z,951.43
2022-08-28T09:25:54.161Z,951.43
2022-08-28T09:28:20.561Z,951.46
2022-08-28T09:30:47.040Z,951.43
2022-08-28T09:33:13.401Z,951.45
2022-08-28T09:35:39.803Z,951.47
2022-08-28T09:38:06.229Z,951.46
2022-08-28T09:40:32.715Z,951.41
2022-08-28T09:42:59.051Z,951.42
2022-08-28T09:45:25.422Z,951.33
2022-08-28T09:47:51.871Z,951.28
2022-08-28T09:50:18.292Z,951.25
2022-08-28T09:52:44.674Z,951.26
2022-08-28T09:55:11.045Z,951.22
2022-08-28T11:28:11.604Z,950.59
2022-08-28T11:30:38.063Z,950.62
2022-08-28T11:33:04.464Z,950.58
2022-08-28T11:35:30.841Z,950.46
2022-08-28T11:37:57.210Z,950.47
2022-08-28T11:40:23.641Z,950.39
2022-08-28T11:42:49.972Z,950.45
2022-08-28T11:45:16.342Z,950.40
2022-08-28T11:47:42.739Z,950.38
2022-08-28T11:50:09.113Z,950.33
2022-08-28T11:52:35.498Z,950.32
2022-08-28T11:55:01.871Z,950.32
2022-08-28T11:57:28.320Z,950.31
2022-08-28T11:59:54.711Z,950.32
2022-08-28T12:02:21.122Z,950.31
2022-08-28T12:04:47.815Z,950.24
2022-08-28T12:07:14.166Z,950.26
2022-08-28T12:09:40.567Z,950.19
2022-08-28T12:12:06.956Z,950.19
2022-08-28T12:14:33.376Z,950.25
2022-08-28T12:16:59.744Z,950.21
2022-08-28T12:19:26.119Z,950.26
2022-08-28T12:21:52.503Z,950.18
2022-08-28T12:24:18.861Z,950.17
2022-08-28T12:26:45.232Z,950.16
2022-08-28T12:29:11.636Z,950.08
2022-08-28T12:31:38.035Z,950.09
2022-08-28T12:34:04.402Z,950.11
2022-08-28T12:36:30.793Z,950.06
2022-08-28T12:38:57.176Z,950.07
2022-08-28T12:41:23.667Z,950.05
2022-08-28T12:43:50.031Z,950.06
2022-08-28T12:46:19.379Z,950.03
2022-08-28T12:48:42.863Z,950.05
2022-08-28T12:51:09.269Z,950.02
2022-08-28T12:53:35.736Z,950.07
2022-08-28T12:56:02.091Z,949.99
2022-08-28T12:58:28.473Z,949.98
2022-08-28T13:00:54.915Z,949.92
2022-08-28T13:03:21.253Z,949.94
2022-08-28T13:05:47.617Z,949.97
2022-08-28T13:08:13.986Z,949.87
2022-08-28T13:10:40.360Z,949.93
2022-08-28T13:13:06.743Z,949.93
2022-08-28T13:15:33.118Z,949.91
2022-08-28T13:17:59.488Z,949.93
2022-08-28T13:20:25.874Z,949.92
2022-08-28T13:22:52.242Z,949.89
2022-08-28T13:25:18.616Z,949.87
2022-08-28T13:27:45.076Z,949.83
2022-08-28T13:30:11.507Z,949.86
2022-08-28T13:32:37.898Z,949.83
2022-08-28T13:35:04.251Z,949.83
2022-08-28T13:37:30.705Z,949.84
2022-08-28T13:39:57.033Z,949.79
2022-08-28T13:42:23.388Z,949.78
2022-08-28T13:44:49.756Z,949.83
2022-08-28T13:47:16.236Z,949.75
2022-08-28T13:49:42.597Z,949.78
2022-08-28T13:52:08.966Z,949.67
2022-08-28T13:54:35.467Z,949.67
2022-08-28T13:57:01.856Z,949.68
2022-08-28T13:59:28.221Z,949.68
2022-08-28T14:01:54.660Z,949.66
2022-08-28T14:04:21.071Z,949.65
2022-08-28T14:06:47.461Z,949.61
2022-08-28T14:09:13.929Z,949.61
2022-08-28T14:11:40.294Z,949.58
2022-08-28T14:14:06.655Z,949.60
2022-08-28T14:16:35.454Z,949.56
2022-08-28T14:18:59.555Z,949.54
2022-08-28T14:21:25.917Z,949.66
2022-08-28T14:23:52.307Z,949.53
2022-08-28T14:26:18.671Z,949.56
2022-08-28T14:28:45.083Z,949.55
2022-08-28T14:31:14.578Z,949.52
2022-08-28T14:33:37.848Z,949.44
2022-08-28T14:36:04.245Z,949.47
2022-08-28T14:38:30.605Z,949.39
2022-08-28T14:40:57.031Z,949.45
2022-08-28T14:43:24.009Z,949.50
2022-08-28T14:45:49.934Z,949.48
2022-08-28T14:48:16.285Z,949.48
2022-08-28T14:50:42.653Z,949.44
2022-08-28T14:53:09.058Z,949.34
2022-08-28T14:55:35.435Z,949.41
2022-08-28T14:58:01.806Z,949.29
2022-08-28T15:00:28.232Z,949.30
2022-08-28T15:02:59.756Z,949.30
2022-08-28T15:05:21.015Z,949.29
2022-08-28T15:07:47.402Z,949.29
2022-08-28T15:10:13.788Z,949.37
2022-08-28T15:12:40.171Z,949.32
2022-08-28T15:15:06.540Z,949.32
2022-08-28T15:17:33.671Z,949.33
2022-08-28T15:19:59.286Z,949.27
2022-08-28T15:22:27.403Z,949.30
2022-08-28T15:24:52.067Z,949.34
2022-08-28T15:27:18.429Z,949.29
2022-08-28T15:29:44.827Z,949.34
2022-08-28T15:32:11.191Z,949.32
2022-08-28T15:34:37.561Z,949.32
2022-08-28T15:37:03.973Z,949.42
2022-08-28T15:39:30.367Z,949.44
2022-08-28T15:41:56.731Z,949.42
2022-08-28T15:44:23.151Z,949.46
2022-08-28T15:46:49.514Z,949.51
2022-08-28T15:49:15.892Z,949.55
2022-08-28T15:51:42.308Z,949.58
2022-08-28T15:54:08.681Z,949.59
2022-08-28T15:56:35.073Z,949.58
2022-08-28T15:59:01.476Z,949.66
2022-08-28T16:01:27.921Z,949.67
2022-08-28T16:03:54.257Z,949.61
2022-08-28T16:06:20.666Z,949.61
2022-08-28T16:08:47.065Z,949.70
2022-08-28T16:11:13.427Z,949.60
2022-08-28T16:13:39.818Z,949.58
2022-08-28T16:16:06.264Z,949.68
2022-08-28T16:18:32.570Z,949.71
2022-08-28T16:21:04.151Z,949.72
2022-08-28T16:23:26.826Z,949.73
2022-08-28T16:25:53.222Z,949.75
2022-08-28T16:28:19.593Z,949.71
2022-08-28T16:30:45.991Z,949.75
2022-08-28T16:33:12.449Z,949.74
2022-08-28T16:35:38.816Z,949.75
2022-08-28T16:38:05.209Z,949.75
2022-08-28T16:40:31.724Z,949.81
2022-08-28T16:42:58.034Z,949.70
2022-08-28T16:45:24.403Z,949.74
2022-08-28T16:47:50.798Z,949.75
2022-08-28T16:50:17.283Z,949.82
2022-08-28T16:52:43.687Z,949.79
2022-08-28T16:55:10.045Z,949.80
2022-08-28T16:57:36.477Z,949.81
2022-08-28T17:00:03.591Z,949.84
2022-08-28T17:02:29.619Z,949.86
2022-08-28T17:04:55.984Z,949.94
2022-08-28T17:07:22.374Z,949.94
2022-08-28T17:09:48.739Z,949.93
2022-08-28T17:12:15.177Z,949.96
2022-08-28T17:14:41.541Z,949.94
2022-08-28T17:17:07.907Z,949.95
2022-08-28T17:19:34.284Z,949.94
2022-08-28T17:22:00.654Z,950.04
2022-08-28T17:24:27.068Z,950.03
2022-08-28T17:26:53.428Z,950.13
2022-08-28T17:29:19.824Z,950.07
2022-08-28T17:31:47.335Z,950.15
2022-08-28T17:34:13.660Z,950.23
2022-08-28T17:36:40.003Z,950.23
2022-08-28T17:39:06.374Z,950.20
2022-08-28T17:41:32.852Z,950.38
2022-08-28T17:43:59.216Z,950.33
2022-08-28T17:46:25.671Z,950.37
2022-08-28T17:48:56.142Z,950.45
2022-08-28T17:51:18.413Z,950.41
2022-08-28T17:53:44.742Z,950.47
2022-08-28T17:56:11.135Z,950.49
2022-08-28T17:58:37.690Z,950.48
2022-08-28T18:01:03.918Z,950.43
2022-08-28T18:03:30.372Z,950.51
2022-08-28T18:05:56.736Z,950.51
2022-08-28T18:08:23.113Z,950.53
2022-08-28T18:10:49.499Z,950.65
2022-08-28T18:13:15.890Z,950.66
2022-08-28T18:15:43.387Z,950.62
2022-08-28T18:18:08.894Z,950.66
2022-08-28T18:20:35.469Z,950.66
2022-08-28T18:23:02.018Z,950.72
2022-08-28T18:25:28.661Z,950.75
2022-08-28T18:27:55.309Z,950.75
2022-08-28T18:30:22.065Z,950.77
2022-08-28T18:32:48.801Z,950.79
2022-08-28T18:35:15.261Z,950.75
2022-08-28T18:37:41.837Z,950.83
2022-08-28T18:40:08.521Z,950.84
2022-08-28T18:42:35.051Z,950.78
2022-08-28T18:45:01.743Z,950.85
2022-08-28T18:47:28.385Z,950.89
2022-08-28T18:49:54.933Z,950.95
2022-08-28T18:52:21.497Z,950.88
2022-08-28T18:54:48.045Z,950.90
2022-08-28T18:57:14.406Z,950.99
2022-08-28T18:59:40.762Z,951.01
2022-08-28T19:02:07.296Z,951.07
2022-08-28T19:04:33.555Z,951.07
2022-08-28T19:06:59.989Z,951.12
2022-08-28T19:09:30.290Z,951.12
2022-08-28T19:11:52.809Z,951.21
2022-08-28T19:14:19.233Z,951.24
2022-08-28T19:16:45.611Z,951.26
2022-08-28T19:19:12.055Z,951.22
2022-08-28T19:21:38.481Z,951.26
2022-08-28T19:24:04.870Z,951.26
2022-08-28T19:26:31.269Z,951.26
2022-08-28T19:28:58.736Z,951.27
2022-08-28T19:31:25.193Z,951.33
2022-08-28T19:33:51.513Z,951.39
2022-08-28T19:36:17.925Z,951.37
2022-08-28T19:38:44.290Z,951.49
2022-08-28T19:41:10.690Z,951.50
2022-08-28T19:43:44.252Z,951.46
2022-08-28T19:46:03.683Z,951.53
2022-08-28T19:48:30.060Z,951.46
2022-08-28T19:50:56.657Z,951.55
2022-08-28T19:53:23.127Z,951.56
2022-08-28T19:55:49.608Z,951.58
2022-08-28T19:58:16.047Z,951.58
2022-08-28T20:00:42.570Z,951.57
2022-08-28T20:03:09.014Z,951.61
2022-08-28T20:05:35.363Z,951.59
2022-08-28T20:08:01.731Z,951.63
2022-08-28T20:10:28.124Z,951.65
2022-08-28T20:12:54.701Z,951.63
2022-08-28T20:15:21.185Z,951.65
2022-08-28T20:17:49.371Z,951.70
2022-08-28T20:20:14.004Z,951.74
2022-08-28T20:22:40.376Z,951.78
2022-08-28T20:25:06.875Z,951.85
2022-08-28T20:27:33.337Z,951.85
2022-08-28T20:29:59.720Z,951.81
2022-08-28T20:32:26.082Z,951.89
2022-08-28T20:34:52.604Z,951.83
2022-08-28T20:37:18.968Z,951.84
2022-08-28T20:39:45.352Z,951.87
2022-08-28T20:42:11.811Z,951.90
2022-08-28T20:44:38.232Z,951.94
2022-08-28T20:47:04.668Z,951.86
2022-08-28T20:49:31.037Z,951.88
2022-08-28T20:51:57.442Z,951.89
2022-08-28T20:54:23.824Z,951.89
2022-08-28T20:56:50.288Z,951.85
2022-08-28T20:59:16.675Z,951.89
2022-08-28T21:01:43.279Z,951.86
2022-08-28T21:04:09.593Z,951.84
2022-08-28T21:06:36.030Z,951.84
2022-08-28T21:09:02.411Z,951.80
2022-08-28T21:11:28.774Z,951.79
2022-08-28T21:13:55.218Z,951.77
2022-08-28T21:16:21.623Z,951.81
2022-08-28T21:19:14.132Z,951.74
2022-08-28T21:21:14.351Z,951.83
2022-08-28T21:23:40.741Z,951.87
2022-08-28T21:26:07.288Z,951.83
2022-08-28T21:28:33.657Z,951.85
2022-08-28T21:31:00.152Z,951.88
2022-08-28T21:33:26.432Z,951.87
2022-08-28T21:35:52.792Z,951.87
2022-08-28T21:38:19.161Z,951.81
2022-08-28T21:40:45.606Z,951.85
2022-08-28T21:43:11.933Z,951.86
2022-08-28T21:45:38.363Z,951.84
2022-08-28T21:48:04.685Z,951.88
2022-08-28T21:50:31.048Z,951.83
2022-08-28T21:52:57.417Z,951.85
2022-08-28T21:55:23.782Z,951.87
2022-08-28T21:57:50.196Z,951.90
2022-08-28T22:00:16.582Z,951.90
2022-08-28T22:02:43.105Z,951.93
2022-08-28T22:05:09.432Z,951.85
2022-08-28T22:07:35.927Z,951.87
2022-08-28T22:10:02.285Z,951.91
2022-08-28T22:12:28.692Z,951.94
2022-08-28T22:14:55.085Z,951.94
2022-08-28T22:17:21.455Z,952.00
2022-08-28T22:19:47.813Z,951.92
2022-08-28T22:22:14.198Z,951.91
2022-08-28T22:24:40.560Z,951.88
2022-08-28T22:27:06.928Z,951.88
2022-08-28T22:29:33.295Z,951.92
2022-08-28T22:31:59.706Z,952.00
2022-08-28T22:34:26.055Z,951.93
2022-08-28T22:36:52.448Z,951.97
2022-08-28T22:39:18.840Z,952.03
2022-08-28T22:41:45.277Z,952.01
2022-08-28T22:44:11.643Z,952.06
2022-08-28T22:46:38.008Z,952.10
2022-08-28T22:49:04.410Z,952.06
2022-08-28T22:51:30.758Z,952.05
2022-08-28T22:53:57.149Z,952.09
2022-08-28T22:56:23.539Z,952.08
2022-08-28T22:58:49.906Z,952.05
2022-08-28T23:01:16.330Z,952.06
2022-08-28T23:03:42.789Z,952.00
2022-08-28T23:06:09.073Z,952.04
2022-08-28T23:08:35.446Z,951.96
2022-08-28T23:11:01.821Z,952.01
2022-08-28T23:13:28.289Z,952.04
2022-08-28T23:15:54.744Z,952.04
2022-08-28T23:18:21.188Z,952.03
2022-08-28T23:20:47.523Z,952.02
2022-08-28T23:23:13.906Z,952.01
2022-08-28T23:25:40.333Z,952.01
2022-08-28T23:28:06.791Z,952.03
2022-08-28T23:30:33.153Z,952.02
2022-08-28T23:32:59.527Z,952.09
2022-08-28T23:35:25.984Z,952.17
2022-08-28T23:37:52.339Z,952.15
2022-08-28T23:40:19.180Z,952.14
2022-08-28T23:42:45.499Z,952.19
2022-08-28T23:45:11.922Z,952.16
2022-08-28T23:47:40.555Z,952.09
2022-08-28T23:50:04.679Z,952.15
2022-08-28T23:52:31.042Z,952.08
2022-08-28T23:54:57.449Z,952.09
2022-08-28T23:57:23.830Z,952.07
2022-08-28T23:59:50.316Z,952.00
